Tortola's Pride — HO-3796 — position and weather

sailwx.info

Track history (hours):
 
Tides and Currents Weather Stations Pressure Air Temp Water Temp Dewpoint Dewpoint Depression Visibility Wind Speed Wind Dir Waves Ship Positions

Tortola's Pride

Last reported at 2015-Jan-24 13:09 UTC. Time now 2015-Jan-25 18:21 UTC.
Position N 18°18' W 064°54'.

Length 49 m; draft 2.8 m.

Type: Cargo ship. MMSI: 355921000.

Date/timePositionNaut miles runAvg speedWind from/ knotsBaromVisibWave heightAir tempDewpointWater temp
2015-Jan-24 13:09N 18°18' W 064°54'5 8.3
2015-Jan-24 12:34N 18°20' W 064°49'9 9.3
2015-Jan-24 11:33N 18°23' W 064°40'4 1.1
2015-Jan-24 08:09N 18°25' W 064°36'15 8.4
2015-Jan-24 06:25N 18°16' W 064°49'6 0.1
2015-Jan-22 16:32N 18°18' W 064°54'9 9.0
2015-Jan-22 15:33N 18°22' W 064°46'8 8.1
2015-Jan-22 14:33N 18°23' W 064°37'2 0.4
2015-Jan-22 10:32N 18°25' W 064°36'8 8.2
2015-Jan-22 09:33N 18°23' W 064°44'9 9.0
2015-Jan-22 08:33N 18°25' W 064°53'  
2015-Jan-19 13:23N 18°18' W 064°54'7 9.0
2015-Jan-19 12:33N 18°22' W 064°47'9 8.8
2015-Jan-19 11:34N 18°23' W 064°38'0 0.0
2015-Jan-18 10:33N 18°23' W 064°38'9 9.4
2015-Jan-18 09:33N 18°24' W 064°48'7 0.2
2015-Jan-16 12:33N 18°17' W 064°52'14 7.1
2015-Jan-16 10:33N 18°22' W 064°38'2 2.1
2015-Jan-16 09:33N 18°24' W 064°37'10 8.5
2015-Jan-16 08:25N 18°17' W 064°43'8 8.9
2015-Jan-16 07:33N 18°15' W 064°51'3 0.1
2015-Jan-14 17:33N 18°18' W 064°51'9 9.1
2015-Jan-14 16:33N 18°23' W 064°43'  
Track history (hours):
 
Tides and Currents Weather Stations Pressure Air Temp Water Temp Dewpoint Dewpoint Depression Visibility Wind Speed Wind Dir Waves Ship Positions

Tortola's Pride

Last reported at 2015-Jan-24 13:09 UTC. Time now 2015-Jan-25 18:21 UTC.
Position N 18°18' W 064°54'.

Length 49 m; draft 2.8 m.

Type: Cargo ship. MMSI: 355921000.

Date/timePositionNaut miles runAvg speedWind from/ knotsBaromVisibWave heightAir tempDewpointWater temp
2015-Jan-24 13:09N 18°18' W 064°54'5 8.3
2015-Jan-24 12:34N 18°20' W 064°49'9 9.3
2015-Jan-24 11:33N 18°23' W 064°40'4 1.1
2015-Jan-24 08:09N 18°25' W 064°36'15 8.4
2015-Jan-24 06:25N 18°16' W 064°49'6 0.1
2015-Jan-22 16:32N 18°18' W 064°54'9 9.0
2015-Jan-22 15:33N 18°22' W 064°46'8 8.1
2015-Jan-22 14:33N 18°23' W 064°37'2 0.4
2015-Jan-22 10:32N 18°25' W 064°36'8 8.2
2015-Jan-22 09:33N 18°23' W 064°44'9 9.0
2015-Jan-22 08:33N 18°25' W 064°53'  
2015-Jan-19 13:23N 18°18' W 064°54'7 9.0
2015-Jan-19 12:33N 18°22' W 064°47'9 8.8
2015-Jan-19 11:34N 18°23' W 064°38'0 0.0
2015-Jan-18 10:33N 18°23' W 064°38'9 9.4
2015-Jan-18 09:33N 18°24' W 064°48'7 0.2
2015-Jan-16 12:33N 18°17' W 064°52'14 7.1
2015-Jan-16 10:33N 18°22' W 064°38'2 2.1
2015-Jan-16 09:33N 18°24' W 064°37'10 8.5
2015-Jan-16 08:25N 18°17' W 064°43'8 8.9
2015-Jan-16 07:33N 18°15' W 064°51'3 0.1
2015-Jan-14 17:33N 18°18' W 064°51'9 9.1
2015-Jan-14 16:33N 18°23' W 064°43'  

Dump ship's entire track history